KBYG/BYG METAR and TAF weather

Enter ICAO airport designator
Station Type Date Time Source
KBYG METAR 2022/06/25 22:53 UTC NOAA

KBYG 252253Z AUTO 34013G20KT 10SM OVC050 15/04 A3043 RMK AO2 SLP284 T01500044


Station Type Date Time Source
KBYG Decoded METAR 2022/06/25 22:53 UTC NOAA

BUFFALO JOHNSON COUNTY AIRPORT , WY, United States (KBYG) 44-23N 106-43W 1497M
Jun 25, 2022 - 06:53 PM EDT / 2022.06.25 2253 UTC
Wind: from the NNW (340 degrees) at 15 MPH (13 KT) gusting to 23 MPH (20 KT):0
Visibility: 10 mile(s):0
Sky conditions: overcast
Temperature: 59.0 F (15.0 C)
Dew Point: 39.9 F (4.4 C)
Relative Humidity: 49%
Pressure (altimeter): 30.43 in. Hg (1030 hPa)
ob: KBYG 252253Z AUTO 34013G20KT 10SM OVC050 15/04 A3043 RMK AO2 SLP284 T01500044
cycle: 23

Station Type Date Time Source
KBYG TAF UTC NOAA

Error!

Example: see airport list